createdAt,value
2023-12-30T00:00:01.545Z,100.00
2023-12-30T00:03:07.273Z,100.00
2023-12-30T00:06:10.720Z,100.00
2023-12-30T00:09:16.019Z,100.00
2023-12-30T00:12:20.220Z,100.00
2023-12-30T00:15:25.181Z,100.00
2023-12-30T00:18:28.463Z,100.00
2023-12-30T00:21:35.801Z,100.00
2023-12-30T00:24:49.893Z,100.00
2023-12-30T00:27:53.816Z,100.00
2023-12-30T00:31:01.289Z,100.00
2023-12-30T00:34:10.216Z,100.00
2023-12-30T00:37:15.852Z,100.00
2023-12-30T00:40:26.398Z,100.00
2023-12-30T00:43:33.349Z,100.00
2023-12-30T00:46:38.661Z,100.00
2023-12-30T00:49:44.017Z,100.00
2023-12-30T00:52:49.143Z,100.00
2023-12-30T00:55:52.375Z,100.00
2023-12-30T00:58:58.239Z,100.00
2023-12-30T01:02:01.367Z,100.00
2023-12-30T01:05:06.121Z,100.00
2023-12-30T01:08:12.972Z,100.00
2023-12-30T01:11:15.914Z,100.00
2023-12-30T01:14:21.786Z,100.00
2023-12-30T01:17:27.676Z,100.00
2023-12-30T01:20:31.824Z,100.00
2023-12-30T01:23:37.353Z,100.00
2023-12-30T01:26:42.598Z,100.00
2023-12-30T01:29:47.805Z,100.00
2023-12-30T01:32:50.860Z,100.00
2023-12-30T01:35:55.135Z,100.00
2023-12-30T01:39:07.076Z,100.00
2023-12-30T01:42:09.981Z,100.00
2023-12-30T01:45:13.334Z,100.00
2023-12-30T01:48:23.510Z,100.00
2023-12-30T01:51:28.803Z,100.00
2023-12-30T01:54:41.719Z,100.00
2023-12-30T01:57:48.082Z,100.00
2023-12-30T02:00:53.385Z,100.00
2023-12-30T02:04:02.412Z,100.00
2023-12-30T02:07:07.688Z,100.00
2023-12-30T02:10:13.055Z,100.00
2023-12-30T02:13:18.483Z,100.00
2023-12-30T02:16:24.030Z,100.00
2023-12-30T02:19:29.274Z,100.00
2023-12-30T02:22:35.039Z,100.00
2023-12-30T02:25:37.962Z,100.00
2023-12-30T02:28:42.601Z,100.00
2023-12-30T02:31:50.570Z,100.00
2023-12-30T02:34:54.206Z,100.00
2023-12-30T02:38:00.030Z,100.00
2023-12-30T02:41:03.123Z,100.00
2023-12-30T02:44:08.406Z,100.00
2023-12-30T02:47:14.658Z,100.00
2023-12-30T02:50:25.089Z,100.00
2023-12-30T02:53:45.784Z,100.00
2023-12-30T02:56:51.161Z,100.00
2023-12-30T02:59:56.390Z,100.00
2023-12-30T03:03:02.268Z,100.00
2023-12-30T03:06:05.949Z,100.00
2023-12-30T03:09:11.163Z,100.00
2023-12-30T03:12:16.409Z,100.00
2023-12-30T03:15:22.245Z,100.00
2023-12-30T03:18:28.804Z,100.00
2023-12-30T03:21:35.990Z,100.00
2023-12-30T03:24:43.996Z,100.00
2023-12-30T03:27:49.297Z,100.00
2023-12-30T03:30:55.089Z,100.00
2023-12-30T03:33:59.817Z,100.00
2023-12-30T03:37:04.580Z,100.00
2023-12-30T03:40:10.845Z,100.00
2023-12-30T03:43:17.642Z,100.00
2023-12-30T03:46:20.599Z,100.00
2023-12-30T03:49:27.733Z,100.00
2023-12-30T03:52:35.853Z,100.00
2023-12-30T03:55:39.820Z,100.00
2023-12-30T03:58:45.014Z,100.00
2023-12-30T04:01:50.694Z,100.00
2023-12-30T04:04:56.021Z,100.00
2023-12-30T04:08:13.222Z,100.00
2023-12-30T04:11:18.309Z,100.00
2023-12-30T04:14:24.306Z,100.00
2023-12-30T04:17:30.627Z,100.00
2023-12-30T04:20:35.641Z,100.00
2023-12-30T04:23:43.490Z,100.00
2023-12-30T04:26:46.618Z,100.00
2023-12-30T04:29:52.296Z,100.00
2023-12-30T04:32:55.280Z,100.00
2023-12-30T04:36:01.427Z,100.00
2023-12-30T04:39:07.238Z,100.00
2023-12-30T04:42:10.409Z,100.00
2023-12-30T04:45:14.130Z,100.00
2023-12-30T04:48:37.666Z,100.00
2023-12-30T04:51:41.102Z,100.00
2023-12-30T04:54:46.830Z,100.00
2023-12-30T04:57:52.329Z,100.00
2023-12-30T05:00:56.624Z,100.00
2023-12-30T05:04:02.405Z,100.00
2023-12-30T05:07:05.962Z,100.00
2023-12-30T05:10:12.679Z,100.00
2023-12-30T05:13:16.692Z,100.00
2023-12-30T05:16:30.596Z,100.00
2023-12-30T05:19:36.268Z,100.00
2023-12-30T05:22:53.500Z,100.00
2023-12-30T05:25:57.358Z,100.00
2023-12-30T05:29:02.660Z,100.00
2023-12-30T05:32:07.345Z,100.00
2023-12-30T05:35:13.672Z,100.00
2023-12-30T05:38:20.561Z,100.00
2023-12-30T05:41:25.774Z,100.00
2023-12-30T05:44:31.915Z,100.00
2023-12-30T05:47:34.769Z,100.00
2023-12-30T05:50:47.510Z,100.00
2023-12-30T05:53:53.637Z,100.00
2023-12-30T05:56:56.703Z,100.00
2023-12-30T05:59:59.608Z,100.00
2023-12-30T06:03:09.108Z,100.00
2023-12-30T06:06:12.756Z,100.00
2023-12-30T06:09:18.231Z,100.00
2023-12-30T06:12:22.845Z,100.00
2023-12-30T06:15:28.348Z,100.00
2023-12-30T06:18:33.306Z,100.00
2023-12-30T06:21:38.585Z,100.00
2023-12-30T06:24:42.757Z,100.00
2023-12-30T06:27:45.608Z,100.00
2023-12-30T06:30:51.439Z,100.00
2023-12-30T06:33:56.882Z,100.00
2023-12-30T06:37:04.039Z,100.00
2023-12-30T06:40:07.893Z,100.00
2023-12-30T06:43:12.748Z,100.00
2023-12-30T06:46:23.502Z,100.00
2023-12-30T06:49:29.623Z,100.00
2023-12-30T06:52:35.071Z,100.00
2023-12-30T06:55:42.018Z,100.00
2023-12-30T06:58:52.567Z,100.00
2023-12-30T07:01:58.757Z,100.00
2023-12-30T07:05:03.810Z,100.00
2023-12-30T07:08:07.327Z,100.00
2023-12-30T07:11:15.179Z,100.00
2023-12-30T07:14:21.007Z,100.00
2023-12-30T07:17:28.257Z,100.00
2023-12-30T07:20:36.888Z,100.00
2023-12-30T07:23:39.731Z,100.00
2023-12-30T07:26:45.003Z,100.00
2023-12-30T07:29:51.666Z,100.00
2023-12-30T07:32:54.860Z,100.00
2023-12-30T07:35:58.381Z,100.00
2023-12-30T07:39:03.036Z,100.00
2023-12-30T07:42:09.792Z,100.00
2023-12-30T07:45:14.373Z,100.00
2023-12-30T07:48:17.237Z,100.00
2023-12-30T07:51:22.361Z,100.00
2023-12-30T07:54:29.151Z,100.00
2023-12-30T07:57:34.810Z,100.00
2023-12-30T08:00:39.820Z,100.00
2023-12-30T08:03:46.972Z,100.00
2023-12-30T08:06:51.792Z,100.00
2023-12-30T08:10:01.798Z,100.00
2023-12-30T08:13:07.056Z,100.00
2023-12-30T08:16:14.219Z,100.00
2023-12-30T08:19:17.646Z,100.00
2023-12-30T08:22:23.949Z,100.00
2023-12-30T08:25:26.790Z,100.00
2023-12-30T08:28:33.794Z,100.00
2023-12-30T08:31:37.098Z,100.00
2023-12-30T08:34:40.269Z,100.00
2023-12-30T08:37:45.122Z,100.00
2023-12-30T08:40:48.350Z,100.00
2023-12-30T08:43:53.490Z,100.00
2023-12-30T08:46:56.524Z,100.00
2023-12-30T08:49:59.497Z,100.00
2023-12-30T08:53:04.823Z,100.00
2023-12-30T08:56:08.202Z,100.00
2023-12-30T08:59:11.387Z,100.00
2023-12-30T09:02:17.163Z,100.00
2023-12-30T09:05:20.867Z,100.00
2023-12-30T09:08:28.109Z,100.00
2023-12-30T09:11:35.201Z,100.00
2023-12-30T09:14:43.237Z,100.00
2023-12-30T09:17:47.769Z,100.00
2023-12-30T09:20:52.168Z,100.00
2023-12-30T09:23:58.313Z,100.00
2023-12-30T09:27:04.328Z,100.00
2023-12-30T09:30:10.492Z,100.00
2023-12-30T09:33:13.673Z,100.00
2023-12-30T09:36:20.716Z,100.00
2023-12-30T09:39:23.526Z,100.00
2023-12-30T09:42:29.821Z,100.00
2023-12-30T09:45:35.832Z,100.00
2023-12-30T09:48:44.256Z,100.00
2023-12-30T09:51:47.966Z,100.00
2023-12-30T09:54:59.674Z,100.00
2023-12-30T09:58:07.399Z,100.00
2023-12-30T10:01:14.236Z,100.00
2023-12-30T10:04:17.641Z,100.00
2023-12-30T10:07:23.057Z,100.00
2023-12-30T10:10:43.762Z,100.00
2023-12-30T10:13:48.744Z,100.00
2023-12-30T10:16:54.788Z,100.00
2023-12-30T10:20:00.882Z,100.00
2023-12-30T10:23:10.217Z,100.00
2023-12-30T10:26:13.726Z,100.00
2023-12-30T10:29:20.647Z,100.00
2023-12-30T10:32:23.812Z,100.00
2023-12-30T10:35:31.482Z,100.00
2023-12-30T10:38:36.883Z,100.00
2023-12-30T10:41:40.024Z,100.00
2023-12-30T10:44:43.536Z,100.00
2023-12-30T10:47:51.262Z,100.00
2023-12-30T10:50:56.608Z,100.00
2023-12-30T10:54:08.853Z,96.20
2023-12-30T10:57:14.533Z,95.74
2023-12-30T11:00:21.522Z,93.75
2023-12-30T11:03:26.172Z,93.52
2023-12-30T11:06:43.614Z,91.29
2023-12-30T11:09:48.837Z,89.92
2023-12-30T11:12:54.306Z,92.22
2023-12-30T11:16:13.062Z,90.39
2023-12-30T11:19:33.174Z,89.64
2023-12-30T11:22:37.293Z,88.27
2023-12-30T11:25:45.179Z,88.41
2023-12-30T11:28:49.088Z,89.11
2023-12-30T11:31:54.028Z,89.47
2023-12-30T11:35:00.784Z,88.88
2023-12-30T11:38:08.491Z,89.10
2023-12-30T11:41:11.240Z,89.18
2023-12-30T11:44:16.202Z,87.25
2023-12-30T11:47:23.257Z,86.97
2023-12-30T11:50:30.324Z,86.58
2023-12-30T11:53:40.711Z,85.19
2023-12-30T11:56:46.631Z,80.18
2023-12-30T11:59:52.938Z,78.90
2023-12-30T12:02:58.520Z,83.49
2023-12-30T12:06:06.418Z,78.58
2023-12-30T12:09:13.433Z,76.12
2023-12-30T12:12:25.842Z,73.26
2023-12-30T12:15:33.350Z,71.13
2023-12-30T12:18:38.768Z,64.80
2023-12-30T12:21:46.451Z,60.50
2023-12-30T12:24:54.385Z,57.52
2023-12-30T12:27:58.748Z,61.29
2023-12-30T12:31:07.233Z,64.17
2023-12-30T12:34:25.179Z,69.96
2023-12-30T12:37:31.107Z,70.20
2023-12-30T12:40:34.120Z,75.01
2023-12-30T12:43:40.005Z,74.12
2023-12-30T12:46:42.978Z,75.10
2023-12-30T12:49:48.978Z,80.21
2023-12-30T12:52:54.326Z,75.03
2023-12-30T12:55:59.565Z,66.21
2023-12-30T12:59:03.719Z,68.20
2023-12-30T13:02:10.190Z,68.42
2023-12-30T13:05:16.492Z,66.42
2023-12-30T13:08:19.661Z,59.47
2023-12-30T13:11:29.468Z,56.73
2023-12-30T13:14:37.932Z,58.70
2023-12-30T13:17:45.960Z,67.50
2023-12-30T13:20:54.092Z,68.18
2023-12-30T13:23:56.935Z,68.53
2023-12-30T13:27:01.372Z,71.96
2023-12-30T13:30:08.802Z,71.85
2023-12-30T13:33:17.115Z,66.27
2023-12-30T13:36:26.998Z,60.48
2023-12-30T13:39:34.852Z,60.65
2023-12-30T13:42:39.165Z,62.16
2023-12-30T13:45:50.190Z,67.39
2023-12-30T13:48:59.627Z,73.41
2023-12-30T13:52:07.203Z,76.80
2023-12-30T13:55:16.617Z,76.11
2023-12-30T13:58:23.548Z,75.62
2023-12-30T14:01:28.848Z,70.94
2023-12-30T14:04:43.632Z,64.74
2023-12-30T14:07:46.598Z,57.18
2023-12-30T14:10:55.337Z,53.84
2023-12-30T14:14:03.203Z,51.70
2023-12-30T14:17:10.146Z,57.25
2023-12-30T14:20:13.803Z,59.13
2023-12-30T14:23:19.461Z,57.16
2023-12-30T14:26:22.586Z,54.79
2023-12-30T14:29:28.010Z,55.76
2023-12-30T14:32:33.814Z,55.19
2023-12-30T14:35:39.275Z,58.29
2023-12-30T14:38:44.535Z,65.49
2023-12-30T14:41:52.670Z,69.10
2023-12-30T14:44:55.553Z,68.82
2023-12-30T14:48:06.227Z,72.12
2023-12-30T14:51:11.352Z,73.40
2023-12-30T14:54:17.928Z,76.13
2023-12-30T14:57:29.172Z,78.12
2023-12-30T15:00:33.866Z,80.41
2023-12-30T15:03:38.952Z,81.18
2023-12-30T15:06:42.707Z,83.11
2023-12-30T15:09:45.936Z,84.07
2023-12-30T15:12:53.982Z,85.60
2023-12-30T15:15:59.093Z,87.42
2023-12-30T15:19:02.480Z,88.61
2023-12-30T15:22:05.623Z,89.15
2023-12-30T15:25:13.875Z,89.48
2023-12-30T15:28:17.551Z,90.14
2023-12-30T15:31:23.198Z,91.44
2023-12-30T15:34:27.150Z,92.49
2023-12-30T15:37:33.063Z,94.28
2023-12-30T15:40:36.916Z,92.36
2023-12-30T15:43:40.115Z,91.63
2023-12-30T15:46:45.085Z,93.07
2023-12-30T15:49:55.136Z,93.60
2023-12-30T15:53:01.788Z,94.26
2023-12-30T15:56:06.594Z,94.53
2023-12-30T15:59:10.727Z,95.54
2023-12-30T16:02:13.842Z,96.48
2023-12-30T16:05:22.533Z,97.51
2023-12-30T16:08:26.121Z,98.67
2023-12-30T16:11:32.766Z,99.68
2023-12-30T16:14:38.299Z,100.00
2023-12-30T16:17:42.905Z,100.00
2023-12-30T16:20:47.606Z,100.00
2023-12-30T16:23:54.658Z,100.00
2023-12-30T16:26:59.142Z,100.00
2023-12-30T16:30:09.264Z,100.00
2023-12-30T16:33:15.233Z,100.00
2023-12-30T16:36:22.058Z,100.00
2023-12-30T16:39:26.286Z,100.00
2023-12-30T16:42:33.040Z,100.00
2023-12-30T16:45:43.124Z,100.00
2023-12-30T16:48:49.101Z,100.00
2023-12-30T16:51:52.050Z,100.00
2023-12-30T16:54:58.253Z,100.00
2023-12-30T16:58:02.897Z,100.00
2023-12-30T17:01:09.592Z,100.00
2023-12-30T17:04:19.703Z,100.00
2023-12-30T17:07:25.224Z,100.00
2023-12-30T17:10:31.567Z,100.00
2023-12-30T17:13:39.642Z,97.71
2023-12-30T17:16:49.287Z,97.96
2023-12-30T17:19:56.033Z,98.31
2023-12-30T17:23:00.936Z,98.59
2023-12-30T17:26:04.091Z,99.50
2023-12-30T17:29:09.984Z,100.00
2023-12-30T17:32:18.742Z,100.00
2023-12-30T17:35:24.306Z,100.00
2023-12-30T17:38:31.083Z,100.00
2023-12-30T17:41:36.598Z,100.00
2023-12-30T17:44:39.730Z,100.00
2023-12-30T17:47:45.692Z,100.00
2023-12-30T17:50:51.151Z,100.00
2023-12-30T17:54:04.148Z,100.00
2023-12-30T17:57:07.390Z,100.00
2023-12-30T18:00:11.288Z,100.00
2023-12-30T18:03:15.135Z,100.00
2023-12-30T18:06:21.550Z,100.00
2023-12-30T18:09:26.641Z,100.00
2023-12-30T18:12:37.924Z,100.00
2023-12-30T18:15:44.075Z,100.00
2023-12-30T18:18:47.730Z,100.00
2023-12-30T18:21:51.937Z,100.00
2023-12-30T18:24:56.466Z,100.00
2023-12-30T18:28:07.250Z,100.00
2023-12-30T18:31:12.420Z,100.00
2023-12-30T18:34:21.000Z,100.00
2023-12-30T18:37:33.441Z,100.00
2023-12-30T18:40:38.147Z,100.00
2023-12-30T18:43:41.378Z,100.00
2023-12-30T18:46:47.472Z,100.00
2023-12-30T18:49:50.991Z,100.00
2023-12-30T18:53:03.797Z,100.00
2023-12-30T18:56:14.872Z,100.00
2023-12-30T18:59:25.314Z,100.00
2023-12-30T19:02:34.677Z,100.00
2023-12-30T19:05:42.425Z,100.00
2023-12-30T19:08:49.628Z,100.00
2023-12-30T19:11:57.103Z,100.00
2023-12-30T19:15:02.691Z,100.00
2023-12-30T19:18:06.888Z,100.00
2023-12-30T19:21:18.688Z,100.00
2023-12-30T19:24:23.013Z,100.00
2023-12-30T19:27:30.221Z,100.00
2023-12-30T19:30:35.072Z,100.00
2023-12-30T19:33:42.471Z,100.00
2023-12-30T19:36:46.236Z,100.00
2023-12-30T19:39:51.279Z,100.00
2023-12-30T19:42:59.669Z,100.00
2023-12-30T19:46:07.436Z,100.00
2023-12-30T19:49:16.153Z,100.00
2023-12-30T19:52:22.239Z,100.00
2023-12-30T19:55:30.043Z,100.00
2023-12-30T19:58:43.512Z,100.00
2023-12-30T20:01:56.541Z,100.00
2023-12-30T20:05:06.163Z,100.00
2023-12-30T20:08:14.709Z,100.00
2023-12-30T20:11:20.857Z,100.00
2023-12-30T20:14:27.821Z,100.00
2023-12-30T20:17:31.365Z,100.00
2023-12-30T20:20:41.177Z,100.00
2023-12-30T20:23:45.167Z,100.00
2023-12-30T20:26:49.338Z,100.00
2023-12-30T20:29:58.496Z,100.00
2023-12-30T20:33:02.894Z,100.00
2023-12-30T20:36:19.688Z,100.00
2023-12-30T20:39:26.487Z,100.00
2023-12-30T20:42:34.659Z,100.00
2023-12-30T20:46:02.695Z,100.00
2023-12-30T20:49:13.477Z,100.00
2023-12-30T20:52:23.046Z,100.00
2023-12-30T20:55:31.768Z,100.00
2023-12-30T20:58:35.923Z,100.00
2023-12-30T21:01:42.072Z,100.00
2023-12-30T21:04:47.302Z,100.00
2023-12-30T21:07:52.179Z,100.00
2023-12-30T21:11:02.253Z,100.00
2023-12-30T21:14:07.514Z,100.00
2023-12-30T21:17:12.434Z,100.00
2023-12-30T21:20:19.734Z,100.00
2023-12-30T21:23:25.049Z,100.00
2023-12-30T21:26:31.923Z,100.00
2023-12-30T21:29:40.192Z,100.00
2023-12-30T21:32:51.663Z,100.00
2023-12-30T21:35:59.459Z,100.00
2023-12-30T21:39:07.943Z,100.00
2023-12-30T21:42:15.041Z,100.00
2023-12-30T21:45:20.204Z,100.00
2023-12-30T21:48:23.133Z,100.00
2023-12-30T21:51:26.489Z,100.00
2023-12-30T21:54:31.029Z,100.00
2023-12-30T21:57:34.126Z,100.00
2023-12-30T22:00:40.045Z,100.00
2023-12-30T22:03:46.690Z,100.00
2023-12-30T22:06:51.136Z,100.00
2023-12-30T22:09:54.429Z,100.00
2023-12-30T22:12:57.497Z,100.00
2023-12-30T22:16:01.998Z,100.00
2023-12-30T22:19:07.616Z,100.00
2023-12-30T22:22:13.037Z,100.00
2023-12-30T22:25:15.934Z,100.00
2023-12-30T22:28:29.690Z,100.00
2023-12-30T22:31:34.837Z,100.00
2023-12-30T22:34:38.255Z,100.00
2023-12-30T22:37:41.752Z,100.00
2023-12-30T22:40:44.924Z,100.00
2023-12-30T22:43:58.312Z,100.00
2023-12-30T22:47:06.920Z,100.00
2023-12-30T22:50:10.507Z,100.00
2023-12-30T22:53:16.870Z,100.00
2023-12-30T22:56:21.916Z,100.00
2023-12-30T22:59:27.169Z,100.00
2023-12-30T23:02:29.951Z,100.00
2023-12-30T23:05:34.445Z,100.00
2023-12-30T23:08:37.314Z,100.00
2023-12-30T23:11:44.726Z,100.00
2023-12-30T23:14:50.055Z,100.00
2023-12-30T23:17:56.030Z,100.00
2023-12-30T23:20:59.409Z,100.00
2023-12-30T23:24:04.412Z,100.00
2023-12-30T23:27:09.879Z,100.00
2023-12-30T23:30:16.102Z,100.00
2023-12-30T23:33:20.792Z,100.00
2023-12-30T23:36:24.007Z,100.00
2023-12-30T23:39:36.258Z,100.00
2023-12-30T23:42:39.502Z,100.00
2023-12-30T23:45:42.411Z,100.00
2023-12-30T23:48:46.509Z,100.00
2023-12-30T23:51:49.507Z,100.00
2023-12-30T23:54:57.247Z,100.00
2023-12-30T23:58:00.070Z,100.00
